Chestnutridge, MO

11:02 AM CDT on June 23, 2017 (GMT -0500)
Day Road | | Change Station

Elev 1273 ft 36.81 °N, 93.25 °W | Updated 20 seconds ago

Rain
Rain
81.4 °F
Feels Like 88 °F
N
3.6
Wind Variable Wind from WSW
Gusts 6.9 mph

Today
High -- | Low -- °F
--% Chance of Precip.
Yesterday
High -- | Low -- °F
Precip. -- in
Pressure 29.82 in
Visibility 10.0 miles
Clouds Mostly Cloudy 1900 ft
Mostly Cloudy 2500 ft
Overcast 6500 ft
Heat Index 88 °F
Dew Point 76 °F
Humidity 83%
Rainfall 0.00 in
Snow Depth Not available.
5:54 AM 8:35 PM
Waning Crescent, 0% visible
METAR KFWB 231555Z AUTO 22004KT 10SM BKN019 BKN025 OVC065 28/24 A2982 RMK AO2
Pressure 29.82 in
Visibility 10.0 miles
Clouds Mostly Cloudy 1900 ft
Mostly Cloudy 2500 ft
Overcast 6500 ft
Heat Index 88 °F
Dew Point 76 °F
Humidity 83%
Rainfall 0.00 in
Snow Depth Not available.
5:54 AM 8:35 PM
Waning Crescent, 0% visible
METAR KFWB 231555Z AUTO 22004KT 10SM BKN019 BKN025 OVC065 28/24 A2982 RMK AO2

Get Severe Weather Alerts

Thanks for signing up!

Be on the lookout for a verification email in your inbox.

You'll start receiving the daily forecast at 6 AM.

×

10-Day Weather Forecast

Almanac

Astronomy

Jun. 23, 2017 Rise Set
Actual Time
Civil Twilight
Nautical Twilight
Astronomical Twilight
Moon
Length of Visible Light
Length of Day
Tomorrow will be .
, % of the Moon is Illuminated

Today's Extremes

State Highs State Lows

Community

WunderPhotos

Category 6

Welcome to Category 6. This is the collective home for Weather Underground's featured writeups by Dr. Jeff Masters (right), Bob Henson (left), Chris Burt, and other regular contributors.

Nearby

Air Quality

  Air Quality AQ Index Pollutant
Not available.

Snow Depth

Station Depth Elevation

Earthquake Activity

City Distance Mag. Time & Date
Minimum magnitude displayed is 2.5.

Coastal Water Temperatures

Place Temperature

Stations

Nearby Weather Stations

Station Location Temp. Windchill Dew Point Humidity Wind Precip. Elev Updated Type
                   

Watches & Warnings

There are currently no watches in effect.